Harrisburg, PA (17140)

10:39 PM EST on February 08, 2016 (GMT -0500)
Lawnton | | Change Station
CLOSE
Current Station
Personal Weather Station
Location: Harrisburg, PA
Elevation: 525 ft
Nearby Weather Stations
Active Advisory: Winter Weather Advisory

Elev 525 ft 40.27 °N, 76.80 °W | Updated 3 minutes ago

Snow
Snow
33.5 °F
Feels Like 34 °F
N
0.0
Wind Variable Wind from SE
Gusts 6.0 mph

Today
High -- | Low -- °F
--% Chance of Precip.
Yesterday
High -- | Low -- °F
Precip. -- in
Pressure 29.69 in
Visibility 2.5 miles
Clouds Overcast 600 ft
Windchill 34 °F
Dew Point 32 °F
Humidity 95%
Rainfall 0.00 in
Snow Depth Not available.
7:09 AM 5:33 PM
New Moon, 0% visible
SPECI KMDT 090304Z 11006KT 2 1/2SM -SNRA OVC006 01/M01 A2969 RMK AO2 P0000 T00111006
Pressure 29.69 in
Visibility 2.5 miles
Clouds Overcast 600 ft
Windchill 34 °F
Dew Point 32 °F
Humidity 95%
Rainfall 0.00 in
Snow Depth Not available.
7:09 AM 5:33 PM
New Moon, 0% visible
SPECI KMDT 090304Z 11006KT 2 1/2SM -SNRA OVC006 01/M01 A2969 RMK AO2 P0000 T00111006

10-Day Weather Forecast

Almanac

Astronomy

Feb. 08, 2016 Rise Set
Actual Time
Civil Twilight
Nautical Twilight
Astronomical Twilight
Moon
Length of Visible Light
Length of Day
Tomorrow will be .
, % of the Moon is Illuminated

Today's Extremes

State Highs State Lows

Community

WunderPhotos

Upload Photos

1,891,527 photos uploaded!

WunderBlog® & News

Nearby

Air Quality

  Air Quality AQ Index Pollutant
Not available.

Snow Depth

Station Depth Elevation

Earthquake Activity

City Distance Mag. Time & Date
Minimum magnitude displayed is 2.5.

Coastal Water Temperatures

Place Temperature

Stations

Nearby Weather Stations

Station Location Temp. Windchill Dew Point Humidity Wind Precip. Elev Updated Type
                   

Watches & Warnings

Winter Weather Advisory
Issued: 2:21 PM EST Feb. 8, 2016 – National Weather Service

... Winter Weather Advisory in effect from midnight tonight to
5 am EST Wednesday...

The National Weather Service in State College has issued a Winter
Weather Advisory for snow... which is in effect from midnight
tonight to 5 am EST Wednesday.

* Snow accumulations... 3 to 6 inches.

* Timing... rain/snow mix this evening will transition to snow
after midnight and continue through Tuesday. The period of most
intense snow will be during the day Tuesday.

* Impacts... hazardous travel conditions especially during the
Tuesday peak commute.

Precautionary/preparedness actions...

Hazardous winter weather conditions are expected or occurring.
Use caution if traveling. For the latest weather information... go
to weather.Gov/statecollege or monitor NOAA Weather Radio.

Report snow or ice accumulation to the National Weather Service
State College by sending an email to ctp.Stormreports@noaa.Gov...
posting to the NWS State College facebook Page... or tweet
@nwsstatecollege with the hashtag c... T... p... W... x.